createdAt,value
2023-05-12T00:00:44.704Z,3.60
2023-05-12T00:03:12.721Z,3.63
2023-05-12T00:05:40.334Z,4.65
2023-05-12T00:08:10.283Z,3.72
2023-05-12T00:10:39.374Z,6.28
2023-05-12T00:13:06.952Z,3.60
2023-05-12T00:15:34.679Z,3.77
2023-05-12T00:18:02.428Z,4.65
2023-05-12T00:20:31.479Z,4.70
2023-05-12T00:22:59.370Z,5.22
2023-05-12T00:25:27.099Z,3.72
2023-05-12T00:27:56.018Z,3.87
2023-05-12T00:30:23.699Z,4.15
2023-05-12T00:32:51.270Z,3.63
2023-05-12T00:35:18.810Z,3.17
2023-05-12T00:37:47.112Z,4.43
2023-05-12T00:40:14.777Z,5.30
2023-05-12T00:42:42.296Z,4.43
2023-05-12T00:45:12.171Z,5.85
2023-05-12T00:47:40.336Z,3.60
2023-05-12T00:50:08.549Z,4.25
2023-05-12T00:52:36.574Z,4.53
2023-05-12T00:55:05.351Z,4.20
2023-05-12T00:57:34.009Z,5.10
2023-05-12T01:00:01.797Z,5.05
2023-05-12T01:02:31.153Z,3.42
2023-05-12T01:04:58.839Z,4.40
2023-05-12T01:07:27.405Z,2.95
2023-05-12T01:09:55.486Z,3.65
2023-05-12T01:12:23.079Z,3.17
2023-05-12T01:14:51.551Z,4.72
2023-05-12T01:17:20.543Z,5.03
2023-05-12T01:19:50.495Z,4.30
2023-05-12T01:22:18.432Z,4.18
2023-05-12T01:24:51.490Z,4.47
2023-05-12T01:27:21.911Z,5.63
2023-05-12T01:29:50.539Z,4.60
2023-05-12T01:32:19.048Z,3.25
2023-05-12T01:34:48.018Z,3.05
2023-05-12T01:37:15.848Z,5.28
2023-05-12T01:39:43.515Z,5.70
2023-05-12T01:42:11.157Z,5.87
2023-05-12T01:44:41.836Z,4.32
2023-05-12T01:47:11.462Z,4.57
2023-05-12T01:49:39.169Z,3.70
2023-05-12T01:52:06.965Z,4.47
2023-05-12T01:54:34.554Z,4.67
2023-05-12T01:57:02.263Z,4.32
2023-05-12T01:59:30.087Z,20.80
2023-05-12T02:01:59.086Z,5.18
2023-05-12T02:04:27.169Z,4.63
2023-05-12T02:06:54.772Z,5.20
2023-05-12T02:09:22.816Z,3.95
2023-05-12T02:11:50.550Z,3.85
2023-05-12T02:14:18.114Z,3.85
2023-05-12T02:16:47.223Z,3.55
2023-05-12T02:19:16.272Z,4.20
2023-05-12T02:21:46.097Z,5.35
2023-05-12T02:24:14.980Z,5.35
2023-05-12T02:26:42.693Z,3.50
2023-05-12T02:29:10.694Z,4.43
2023-05-12T02:31:38.306Z,4.17
2023-05-12T02:34:06.845Z,4.55
2023-05-12T02:36:35.894Z,5.32
2023-05-12T02:39:03.519Z,3.60
2023-05-12T02:41:31.141Z,4.63
2023-05-12T02:43:58.949Z,4.07
2023-05-12T02:46:26.564Z,4.70
2023-05-12T02:48:54.182Z,5.10
2023-05-12T02:51:21.679Z,5.38
2023-05-12T02:53:50.606Z,4.72
2023-05-12T02:56:18.542Z,5.40
2023-05-12T02:58:46.159Z,8.63
2023-05-12T03:01:13.812Z,6.20
2023-05-12T03:03:41.710Z,6.03
2023-05-12T03:06:09.441Z,8.70
2023-05-12T03:08:37.275Z,8.37
2023-05-12T03:11:06.413Z,10.98
2023-05-12T03:13:34.433Z,9.82
2023-05-12T03:16:02.152Z,10.07
2023-05-12T03:18:29.999Z,14.05
2023-05-12T03:20:57.665Z,9.70
2023-05-12T03:23:25.269Z,11.10
2023-05-12T03:25:52.865Z,10.45
2023-05-12T03:28:22.964Z,12.10
2023-05-12T03:30:50.554Z,12.93
2023-05-12T03:33:18.228Z,11.40
2023-05-12T03:35:45.928Z,11.40
2023-05-12T03:38:14.083Z,14.25
2023-05-12T03:40:41.597Z,13.50
2023-05-12T03:43:09.139Z,16.88
2023-05-12T03:45:38.213Z,12.43
2023-05-12T03:48:07.149Z,14.38
2023-05-12T03:50:34.747Z,13.00
2023-05-12T03:53:02.379Z,19.63
2023-05-12T03:55:29.960Z,13.32
2023-05-12T03:57:57.686Z,15.30
2023-05-12T04:00:25.341Z,17.23
2023-05-12T04:02:54.315Z,20.45
2023-05-12T04:05:21.926Z,18.65
2023-05-12T04:07:51.071Z,17.67
2023-05-12T04:10:19.163Z,17.70
2023-05-12T04:12:46.991Z,18.98
2023-05-12T04:15:15.660Z,22.83
2023-05-12T04:17:43.290Z,21.13
2023-05-12T04:20:12.743Z,17.92
2023-05-12T04:22:40.529Z,22.23
2023-05-12T04:25:08.692Z,16.70
2023-05-12T04:27:36.172Z,21.15
2023-05-12T04:30:03.974Z,18.05
2023-05-12T04:32:31.555Z,23.77
2023-05-12T04:34:59.189Z,20.03
2023-05-12T04:37:28.292Z,21.13
2023-05-12T04:39:55.872Z,23.63
2023-05-12T04:42:23.407Z,16.98
2023-05-12T04:44:51.073Z,20.42
2023-05-12T04:47:18.621Z,21.83
2023-05-12T04:49:46.971Z,20.77
2023-05-12T04:52:14.627Z,20.25
2023-05-12T04:54:43.694Z,20.23
2023-05-12T04:57:11.253Z,19.50
2023-05-12T04:59:41.627Z,18.53
2023-05-12T05:02:09.260Z,19.30
2023-05-12T05:04:36.956Z,18.48
2023-05-12T05:07:04.604Z,16.02
2023-05-12T05:09:33.858Z,14.25
2023-05-12T05:12:04.036Z,17.67
2023-05-12T05:14:31.761Z,19.52
2023-05-12T05:16:59.911Z,18.42
2023-05-12T05:19:40.316Z,15.80
2023-05-12T05:22:15.975Z,17.17
2023-05-12T05:24:43.600Z,15.40
2023-05-12T05:27:12.690Z,19.40
2023-05-12T05:29:40.350Z,17.63
2023-05-12T05:32:08.380Z,14.50
2023-05-12T05:34:38.210Z,15.40
2023-05-12T05:37:06.244Z,15.03
2023-05-12T05:39:33.902Z,14.25
2023-05-12T05:42:01.427Z,14.52
2023-05-12T05:44:30.373Z,18.20
2023-05-12T05:46:58.452Z,14.60
2023-05-12T05:49:25.984Z,12.60
2023-05-12T05:51:53.756Z,19.52
2023-05-12T05:54:21.476Z,15.00
2023-05-12T05:56:49.032Z,13.35
2023-05-12T05:59:16.583Z,12.77
2023-05-12T06:01:46.030Z,12.37
2023-05-12T06:04:13.813Z,10.50
2023-05-12T06:06:43.005Z,7.68
2023-05-12T06:09:12.379Z,9.43
2023-05-12T06:11:40.371Z,8.15
2023-05-12T06:14:08.186Z,10.07
2023-05-12T06:16:36.029Z,9.98
2023-05-12T06:19:06.803Z,7.93
2023-05-12T06:21:35.024Z,10.25
2023-05-12T06:24:02.587Z,9.73
2023-05-12T06:26:31.266Z,7.97
2023-05-12T06:28:58.796Z,10.88
2023-05-12T06:31:26.941Z,13.32
2023-05-12T06:33:55.356Z,8.57
2023-05-12T06:36:24.262Z,11.05
2023-05-12T06:38:52.620Z,9.63
2023-05-12T06:41:22.020Z,7.45
2023-05-12T06:43:49.575Z,9.48
2023-05-12T06:46:17.798Z,8.52
2023-05-12T06:48:46.045Z,8.32
2023-05-12T06:51:14.120Z,9.80
2023-05-12T06:53:43.174Z,8.98
2023-05-12T06:56:11.593Z,11.57
2023-05-12T06:58:39.252Z,8.77
2023-05-12T07:01:06.915Z,10.85
2023-05-12T07:03:34.744Z,9.70
2023-05-12T07:06:02.365Z,11.38
2023-05-12T07:08:30.260Z,12.52
2023-05-12T07:11:00.767Z,12.18
2023-05-12T07:13:28.660Z,9.15
2023-05-12T07:15:56.560Z,10.10
2023-05-12T07:18:24.933Z,11.18
2023-05-12T07:20:53.415Z,9.10
2023-05-12T07:23:21.066Z,11.48
2023-05-12T07:25:48.787Z,8.63
2023-05-12T07:28:17.689Z,12.17
2023-05-12T07:30:45.557Z,11.38
2023-05-12T07:33:13.555Z,10.85
2023-05-12T07:35:41.107Z,10.52
2023-05-12T07:38:09.671Z,8.07
2023-05-12T07:40:37.629Z,9.97
2023-05-12T07:43:05.116Z,8.48
2023-05-12T07:45:34.179Z,10.23
2023-05-12T07:48:01.832Z,10.18
2023-05-12T07:50:29.421Z,8.73
2023-05-12T07:52:57.011Z,13.03
2023-05-12T07:55:25.675Z,11.85
2023-05-12T07:57:53.441Z,9.35
2023-05-12T08:00:21.210Z,7.78
2023-05-12T08:02:50.462Z,9.73
2023-05-12T08:05:18.382Z,7.87
2023-05-12T08:07:46.801Z,9.85
2023-05-12T08:10:14.953Z,10.13
2023-05-12T08:12:42.464Z,12.38
2023-05-12T08:15:10.618Z,8.88
2023-05-12T08:17:38.384Z,11.60
2023-05-12T08:20:09.107Z,7.88
2023-05-12T08:22:36.700Z,7.93
2023-05-12T08:25:04.945Z,9.85
2023-05-12T08:27:32.464Z,9.90
2023-05-12T08:30:00.259Z,8.43
2023-05-12T08:32:28.584Z,8.70
2023-05-12T08:35:02.332Z,7.78
2023-05-12T08:37:34.349Z,7.35
2023-05-12T08:40:05.289Z,6.80
2023-05-12T08:42:37.688Z,8.17
2023-05-12T08:45:06.506Z,8.65
2023-05-12T08:47:35.474Z,7.40
2023-05-12T08:50:06.292Z,10.32
2023-05-12T08:52:35.944Z,9.50
2023-05-12T08:55:04.876Z,9.70
2023-05-12T08:57:32.412Z,7.85
2023-05-12T09:00:01.495Z,9.93
2023-05-12T09:02:44.674Z,7.05
2023-05-12T09:05:20.029Z,7.20
2023-05-12T09:07:50.738Z,9.43
2023-05-12T09:10:33.784Z,6.28
2023-05-12T09:13:04.323Z,8.82
2023-05-12T09:15:34.661Z,8.63
2023-05-12T09:18:02.474Z,8.80
2023-05-12T09:20:31.954Z,13.20
2023-05-12T09:23:12.449Z,10.65
2023-05-12T09:25:40.207Z,9.35
2023-05-12T09:28:07.853Z,9.95
2023-05-12T09:30:38.200Z,8.32
2023-05-12T09:33:09.713Z,11.20
2023-05-12T09:35:41.398Z,11.02
2023-05-12T09:38:11.478Z,11.05
2023-05-12T09:40:39.491Z,12.63
2023-05-12T09:43:07.534Z,12.90
2023-05-12T09:45:36.457Z,12.50
2023-05-12T09:48:12.508Z,10.18
2023-05-12T09:50:48.371Z,12.30
2023-05-12T09:53:19.250Z,11.30
2023-05-12T09:55:48.559Z,10.98
2023-05-12T09:58:17.136Z,9.33
2023-05-12T10:01:12.706Z,8.90
2023-05-12T10:03:34.505Z,9.50
2023-05-12T10:06:05.650Z,8.82
2023-05-12T10:08:39.171Z,11.05
2023-05-12T10:11:07.382Z,8.57
2023-05-12T10:13:35.089Z,9.35
2023-05-12T10:16:03.777Z,8.80
2023-05-12T10:18:32.714Z,10.23
2023-05-12T10:21:00.836Z,9.55
2023-05-12T10:23:28.790Z,9.07
2023-05-12T10:26:01.739Z,7.85
2023-05-12T10:28:29.463Z,8.30
2023-05-12T10:30:57.871Z,7.38
2023-05-12T10:33:25.652Z,8.55
2023-05-12T10:35:53.733Z,9.63
2023-05-12T10:38:21.347Z,8.65
2023-05-12T10:40:57.897Z,7.25
2023-05-12T10:43:27.886Z,8.70
2023-05-12T10:46:08.603Z,7.63
2023-05-12T10:48:37.724Z,7.43
2023-05-12T10:51:08.513Z,10.85
2023-05-12T10:53:48.360Z,8.70
2023-05-12T10:56:22.790Z,7.35
2023-05-12T10:59:05.562Z,8.75
2023-05-12T11:01:35.973Z,8.17
2023-05-12T11:04:14.282Z,9.52
2023-05-12T11:06:43.091Z,10.90
2023-05-12T11:09:13.149Z,6.75
2023-05-12T11:11:41.450Z,10.98
2023-05-12T11:14:09.585Z,10.10
2023-05-12T11:16:46.653Z,8.75
2023-05-12T11:19:14.705Z,6.95
2023-05-12T11:21:42.566Z,7.53
2023-05-12T11:24:14.394Z,8.15
2023-05-12T11:26:42.248Z,5.57
2023-05-12T11:29:09.960Z,8.90
2023-05-12T11:31:38.019Z,5.65
2023-05-12T11:34:13.154Z,5.80
2023-05-12T11:36:42.228Z,7.05
2023-05-12T11:39:14.221Z,7.30
2023-05-12T11:41:41.966Z,11.68
2023-05-12T11:44:19.813Z,8.68
2023-05-12T11:46:58.115Z,6.72
2023-05-12T11:49:27.375Z,5.63
2023-05-12T11:51:55.594Z,6.90
2023-05-12T11:54:23.765Z,6.05
2023-05-12T11:56:51.904Z,6.32
2023-05-12T11:59:29.814Z,10.23
2023-05-12T12:01:57.752Z,6.18
2023-05-12T12:04:36.931Z,8.40
2023-05-12T12:07:07.155Z,7.93
2023-05-12T12:09:36.366Z,6.47
2023-05-12T12:12:05.101Z,8.15
2023-05-12T12:14:33.543Z,5.90
2023-05-12T12:17:01.293Z,5.73
2023-05-12T12:19:29.229Z,6.88
2023-05-12T12:21:58.795Z,6.57
2023-05-12T12:24:26.576Z,5.70
2023-05-12T12:26:54.297Z,7.78
2023-05-12T12:29:23.812Z,5.37
2023-05-12T12:31:51.592Z,6.30
2023-05-12T12:34:19.694Z,7.78
2023-05-12T12:36:48.274Z,9.10
2023-05-12T12:39:19.641Z,9.20
2023-05-12T12:41:49.036Z,6.63
2023-05-12T12:44:16.590Z,6.35
2023-05-12T12:46:44.335Z,6.45
2023-05-12T12:49:12.024Z,5.78
2023-05-12T12:51:46.088Z,8.35
2023-05-12T12:54:14.678Z,8.10
2023-05-12T12:56:45.160Z,7.53
2023-05-12T12:59:13.472Z,7.13
2023-05-12T13:01:41.124Z,7.40
2023-05-12T13:04:08.716Z,7.00
2023-05-12T13:06:36.402Z,7.20
2023-05-12T13:09:04.070Z,6.30
2023-05-12T13:11:32.328Z,6.85
2023-05-12T13:14:02.309Z,7.70
2023-05-12T13:16:30.209Z,8.02
2023-05-12T13:18:57.930Z,6.17
2023-05-12T13:21:26.070Z,6.05
2023-05-12T13:23:53.816Z,5.57
2023-05-12T13:26:21.335Z,5.43
2023-05-12T13:28:49.135Z,6.47
2023-05-12T13:31:18.796Z,6.63
2023-05-12T13:33:46.401Z,5.20
2023-05-12T13:36:13.955Z,6.25
2023-05-12T13:38:42.688Z,5.82
2023-05-12T13:41:10.211Z,6.15
2023-05-12T13:43:37.811Z,5.20
2023-05-12T13:46:05.639Z,6.97
2023-05-12T13:48:34.580Z,7.28
2023-05-12T13:51:02.100Z,6.88
2023-05-12T13:53:29.697Z,4.70
2023-05-12T13:55:57.217Z,6.03
2023-05-12T13:58:24.915Z,8.98
2023-05-12T14:00:52.740Z,7.57
2023-05-12T14:03:20.569Z,5.70
2023-05-12T14:05:49.613Z,7.22
2023-05-12T14:08:17.334Z,5.70
2023-05-12T14:10:45.123Z,6.65
2023-05-12T14:13:13.798Z,7.63
2023-05-12T14:15:48.500Z,6.50
2023-05-12T14:18:17.241Z,6.60
2023-05-12T14:20:45.177Z,5.07
2023-05-12T14:23:15.064Z,4.43
2023-05-12T14:25:42.613Z,7.32
2023-05-12T14:28:10.358Z,5.35
2023-05-12T14:30:38.759Z,6.45
2023-05-12T14:33:06.544Z,5.87
2023-05-12T14:35:34.272Z,5.97
2023-05-12T14:38:02.061Z,5.70
2023-05-12T14:40:31.052Z,6.22
2023-05-12T14:42:59.668Z,6.18
2023-05-12T14:45:28.427Z,7.37
2023-05-12T14:47:56.112Z,6.45
2023-05-12T14:50:24.200Z,5.68
2023-05-12T14:52:51.818Z,6.30
2023-05-12T14:55:20.344Z,5.72
2023-05-12T14:57:50.054Z,6.80
2023-05-12T15:00:18.165Z,7.75
2023-05-12T15:02:46.349Z,4.75
2023-05-12T15:05:14.473Z,6.55
2023-05-12T15:07:41.996Z,5.13
2023-05-12T15:10:09.923Z,5.40
2023-05-12T15:12:37.538Z,7.35
2023-05-12T15:15:11.437Z,7.18
2023-05-12T15:17:39.277Z,5.57
2023-05-12T15:20:08.040Z,6.38
2023-05-12T15:22:35.632Z,6.57
2023-05-12T15:25:04.542Z,8.15
2023-05-12T15:27:32.965Z,8.32
2023-05-12T15:30:00.587Z,5.47
2023-05-12T15:32:29.546Z,6.75
2023-05-12T15:34:57.895Z,5.17
2023-05-12T15:37:26.046Z,4.82
2023-05-12T15:39:53.654Z,5.95
2023-05-12T15:42:26.166Z,6.90
2023-05-12T15:44:57.606Z,5.88
2023-05-12T15:47:26.065Z,5.07
2023-05-12T15:49:55.027Z,5.93
2023-05-12T15:52:23.012Z,7.07
2023-05-12T15:54:50.907Z,7.43
2023-05-12T15:57:18.621Z,5.97
2023-05-12T15:59:46.905Z,4.83
2023-05-12T16:02:14.519Z,6.22
2023-05-12T16:04:45.069Z,5.43
2023-05-12T16:07:14.365Z,5.00
2023-05-12T16:09:42.080Z,4.78
2023-05-12T16:12:11.343Z,5.60
2023-05-12T16:14:38.962Z,8.73
2023-05-12T16:19:43.246Z,5.38
2023-05-12T16:22:10.931Z,6.10
2023-05-12T16:24:39.813Z,6.77
2023-05-12T16:27:07.533Z,5.80
2023-05-12T16:29:35.204Z,4.43
2023-05-12T16:32:02.791Z,4.57
2023-05-12T16:34:30.449Z,4.75
2023-05-12T16:36:58.025Z,5.10
2023-05-12T16:39:25.533Z,5.30
2023-05-12T16:41:54.724Z,5.20
2023-05-12T16:44:22.372Z,10.40
2023-05-12T16:46:50.171Z,5.53
2023-05-12T16:49:17.871Z,5.23
2023-05-12T16:51:45.612Z,6.55
2023-05-12T16:54:13.312Z,5.22
2023-05-12T16:56:40.988Z,5.03
2023-05-12T16:59:09.858Z,5.47
2023-05-12T17:01:39.353Z,5.30
2023-05-12T17:04:07.865Z,5.40
2023-05-12T17:06:35.816Z,7.65
2023-05-12T17:09:03.518Z,4.82
2023-05-12T17:11:32.803Z,6.93
2023-05-12T17:14:00.902Z,5.40
2023-05-12T17:16:29.897Z,6.35
2023-05-12T17:21:28.555Z,5.07
2023-05-12T17:23:57.201Z,4.78
2023-05-12T17:26:27.577Z,4.73
2023-05-12T17:28:55.186Z,4.80
2023-05-12T17:31:23.115Z,6.00
2023-05-12T17:33:52.585Z,6.50
2023-05-12T17:36:20.361Z,5.18
2023-05-12T17:38:48.261Z,4.37
2023-05-12T17:41:16.176Z,6.93
2023-05-12T17:43:43.996Z,7.65
2023-05-12T17:46:11.791Z,5.35
2023-05-12T17:48:39.491Z,7.88
2023-05-12T17:51:08.578Z,5.87
2023-05-12T17:53:36.350Z,4.88
2023-05-12T17:56:04.073Z,5.18
2023-05-12T17:58:31.568Z,6.63
2023-05-12T18:00:59.271Z,4.43
2023-05-12T18:03:27.105Z,6.47
2023-05-12T18:05:55.350Z,7.88
2023-05-12T18:08:24.291Z,5.95
2023-05-12T18:10:51.999Z,6.05
2023-05-12T18:13:19.551Z,6.10
2023-05-12T18:15:49.169Z,5.63
2023-05-12T18:18:17.051Z,5.93
2023-05-12T18:20:44.670Z,8.38
2023-05-12T18:23:12.555Z,4.68
2023-05-12T18:25:42.847Z,8.68
2023-05-12T18:28:10.424Z,5.97
2023-05-12T18:30:38.057Z,6.05
2023-05-12T18:33:06.065Z,5.13
2023-05-12T18:35:33.693Z,5.97
2023-05-12T18:38:01.494Z,5.85
2023-05-12T18:40:29.208Z,5.57
2023-05-12T18:42:58.640Z,5.65
2023-05-12T18:45:26.360Z,5.93
2023-05-12T18:47:54.020Z,4.35
2023-05-12T18:50:21.610Z,8.30
2023-05-12T18:52:49.263Z,5.87
2023-05-12T18:55:16.829Z,6.15
2023-05-12T18:57:44.468Z,5.85
2023-05-12T19:00:16.507Z,6.30
2023-05-12T19:02:45.914Z,6.22
2023-05-12T19:05:13.678Z,6.63
2023-05-12T19:07:41.274Z,7.93
2023-05-12T19:10:10.359Z,6.47
2023-05-12T19:12:37.959Z,6.93
2023-05-12T19:15:05.932Z,6.25
2023-05-12T19:17:34.912Z,5.10
2023-05-12T19:20:02.464Z,7.70
2023-05-12T19:22:30.115Z,5.75
2023-05-12T19:24:58.123Z,6.13
2023-05-12T19:27:27.073Z,6.43
2023-05-12T19:29:55.152Z,9.00
2023-05-12T19:32:23.177Z,7.85
2023-05-12T19:34:52.163Z,7.15
2023-05-12T19:37:20.353Z,9.13
2023-05-12T19:39:48.191Z,6.55
2023-05-12T19:42:15.704Z,6.60
2023-05-12T19:44:43.700Z,6.95
2023-05-12T19:47:12.491Z,6.85
2023-05-12T19:49:40.083Z,10.82
2023-05-12T19:52:12.586Z,7.10
2023-05-12T19:54:40.928Z,6.30
2023-05-12T19:57:08.601Z,6.88
2023-05-12T19:59:36.171Z,6.75
2023-05-12T20:02:04.011Z,8.45
2023-05-12T20:04:31.483Z,8.05
2023-05-12T20:06:59.122Z,9.00
2023-05-12T20:09:28.715Z,9.43
2023-05-12T20:11:56.891Z,9.63
2023-05-12T20:14:24.435Z,9.35
2023-05-12T20:16:52.137Z,9.02
2023-05-12T20:19:19.834Z,8.77
2023-05-12T20:21:47.402Z,8.93
2023-05-12T20:24:15.028Z,11.63
2023-05-12T20:26:44.056Z,10.95
2023-05-12T20:29:11.985Z,9.82
2023-05-12T20:31:39.939Z,9.10
2023-05-12T20:34:07.526Z,8.57
2023-05-12T20:36:39.153Z,12.75
2023-05-12T20:39:07.912Z,9.68
2023-05-12T20:41:35.415Z,10.48
2023-05-12T20:44:04.898Z,10.93
2023-05-12T20:46:33.949Z,10.25
2023-05-12T20:49:03.229Z,10.50
2023-05-12T20:51:30.736Z,10.27
2023-05-12T20:53:58.454Z,9.52
2023-05-12T20:56:26.526Z,11.20
2023-05-12T20:58:54.114Z,10.98
2023-05-12T21:01:23.246Z,10.57
2023-05-12T21:03:50.905Z,9.63
2023-05-12T21:06:21.629Z,8.13
2023-05-12T21:08:49.269Z,10.53
2023-05-12T21:11:17.300Z,9.60
2023-05-12T21:13:45.158Z,9.45
2023-05-12T21:16:12.893Z,11.65
2023-05-12T21:18:41.840Z,9.60
2023-05-12T21:21:09.907Z,9.90
2023-05-12T21:23:37.784Z,10.30
2023-05-12T21:26:05.865Z,12.05
2023-05-12T21:28:33.594Z,10.02
2023-05-12T21:31:01.516Z,10.98
2023-05-12T21:33:29.582Z,9.83
2023-05-12T21:36:03.497Z,8.80
2023-05-12T21:38:32.102Z,10.00
2023-05-12T21:41:00.391Z,9.73
2023-05-12T21:43:28.425Z,9.70
2023-05-12T21:45:56.139Z,10.70
2023-05-12T21:48:24.824Z,9.73
2023-05-12T21:51:00.637Z,10.32
2023-05-12T21:53:28.764Z,12.73
2023-05-12T21:55:56.363Z,11.90
2023-05-12T21:58:24.151Z,13.83
2023-05-12T22:00:52.417Z,11.50
2023-05-12T22:03:27.670Z,10.88
2023-05-12T22:05:55.337Z,8.27
2023-05-12T22:08:28.057Z,12.02
2023-05-12T22:10:55.729Z,11.17
2023-05-12T22:13:23.340Z,9.10
2023-05-12T22:15:50.942Z,10.85
2023-05-12T22:18:18.954Z,12.38
2023-05-12T22:20:47.261Z,13.90
2023-05-12T22:23:14.887Z,10.33
2023-05-12T22:25:44.131Z,11.52
2023-05-12T22:28:12.092Z,10.15
2023-05-12T22:30:41.702Z,11.60
2023-05-12T22:33:09.566Z,9.27
2023-05-12T22:35:37.227Z,12.57
2023-05-12T22:38:04.935Z,17.42
2023-05-12T22:40:33.745Z,12.95
2023-05-12T22:43:02.720Z,9.43
2023-05-12T22:45:30.735Z,10.30
2023-05-12T22:47:58.495Z,8.40
2023-05-12T22:50:26.300Z,12.27
2023-05-12T22:52:57.242Z,10.90
2023-05-12T22:55:27.818Z,9.85
2023-05-12T22:57:56.001Z,11.57
2023-05-12T23:00:25.155Z,15.87
2023-05-12T23:02:52.913Z,11.48
2023-05-12T23:05:20.637Z,13.02
2023-05-12T23:07:48.430Z,12.93
2023-05-12T23:10:16.062Z,12.35
2023-05-12T23:12:43.643Z,11.23
2023-05-12T23:15:11.568Z,10.40
2023-05-12T23:17:40.568Z,14.00
2023-05-12T23:20:08.957Z,11.45
2023-05-12T23:22:36.547Z,8.95
2023-05-12T23:25:04.425Z,10.33
2023-05-12T23:27:32.206Z,11.15
2023-05-12T23:30:00.526Z,10.48
2023-05-12T23:32:28.498Z,12.40
2023-05-12T23:34:57.516Z,13.93
2023-05-12T23:37:25.468Z,10.53
2023-05-12T23:39:53.095Z,10.43
2023-05-12T23:42:20.654Z,11.30
2023-05-12T23:44:48.806Z,10.95
2023-05-12T23:47:16.739Z,11.90
2023-05-12T23:49:44.977Z,12.33
2023-05-12T23:52:13.901Z,12.23
2023-05-12T23:54:41.516Z,10.35
2023-05-12T23:57:09.070Z,12.05
2023-05-12T23:59:36.900Z,11.10
